Time;durP1;ratioP1;P1;durP2;ratioP2;P2;SDS_P1;SDS_P2;PMS_P1;PMS_P2;Temp;Humidity;BMP_temperature;BMP_pressure;BME280_temperature;BME280_humidity;BME280_pressure;Samples;Min_cycle;Max_cycle;Signal;HPM_P1;HPM_P2
2022/03/16 00:00:22;;;;;;;19.07;14.43;;;2.90;99.90;;;;;;5096703;28;20464;-61
2022/03/16 00:02:52;;;;;;;19.93;13.40;;;2.90;99.90;;;;;;5097097;28;20874;-60
2022/03/16 00:05:21;;;;;;;17.23;13.60;;;2.90;99.90;;;;;;5096629;28;20503;-61
2022/03/16 00:07:49;;;;;;;16.60;13.67;;;2.90;99.90;;;;;;5096814;28;20915;-60
2022/03/16 00:10:16;;;;;;;16.57;13.00;;;2.80;99.90;;;;;;5096478;28;20472;-60
2022/03/16 00:12:53;;;;;;;16.57;14.20;;;2.70;99.90;;;;;;5096960;28;20946;-59
2022/03/16 00:15:20;;;;;;;15.40;12.80;;;2.60;99.90;;;;;;5096803;28;20499;-60
2022/03/16 00:17:47;;;;;;;16.33;12.37;;;2.60;99.90;;;;;;5096089;28;20800;-60
2022/03/16 00:20:16;;;;;;;16.27;12.77;;;2.50;99.90;;;;;;5096955;28;20513;-60
2022/03/16 00:22:49;;;;;;;15.70;13.13;;;2.40;99.90;;;;;;5095158;28;20889;-60
2022/03/16 00:25:20;;;;;;;16.97;13.00;;;2.40;99.90;;;;;;5097168;28;20468;-60
2022/03/16 00:27:51;;;;;;;17.43;13.27;;;2.30;99.90;;;;;;5096535;28;20460;-60
2022/03/16 00:30:21;;;;;;;28.07;18.20;;;2.40;99.90;;;;;;5096386;28;20456;-60
2022/03/16 00:32:48;;;;;;;22.80;14.50;;;2.30;99.90;;;;;;5096922;28;20889;-60
2022/03/16 00:35:17;;;;;;;21.73;14.40;;;2.20;99.90;;;;;;5096006;28;20818;-60
2022/03/16 00:37:44;;;;;;;24.13;14.03;;;2.20;99.90;;;;;;5096968;28;20524;-60
2022/03/16 00:40:12;;;;;;;17.10;13.40;;;2.10;99.90;;;;;;5091037;28;20654;-60
2022/03/16 00:42:47;;;;;;;16.10;12.70;;;2.10;99.90;;;;;;5076734;28;20933;-58
2022/03/16 00:45:20;;;;;;;18.43;13.17;;;2.20;99.90;;;;;;5076899;28;20527;-57
2022/03/16 00:47:47;;;;;;;14.00;11.90;;;2.00;99.90;;;;;;5075992;28;20512;-60
2022/03/16 00:50:17;;;;;;;15.07;12.93;;;2.10;99.90;;;;;;5075687;28;20469;-59
2022/03/16 00:52:50;;;;;;;17.57;13.83;;;2.00;99.90;;;;;;5091364;28;20547;-55
2022/03/16 00:55:17;;;;;;;16.00;12.50;;;2.10;99.90;;;;;;5100232;28;20488;-59
2022/03/16 00:57:48;;;;;;;15.20;12.43;;;2.10;99.90;;;;;;5100279;28;20468;-57
2022/03/16 01:00:20;;;;;;;17.73;13.80;;;2.00;99.90;;;;;;5099955;28;20923;-58
2022/03/16 01:02:47;;;;;;;40.10;22.30;;;1.90;99.90;;;;;;5100391;28;20467;-58
2022/03/16 01:05:14;;;;;;;28.20;18.40;;;2.00;99.90;;;;;;5099690;28;20557;-55
2022/03/16 01:07:47;;;;;;;33.73;21.90;;;1.90;99.90;;;;;;5099605;28;20958;-58
2022/03/16 01:10:17;;;;;;;19.67;14.43;;;1.90;99.90;;;;;;5099877;28;20479;-59
2022/03/16 01:12:53;;;;;;;16.50;12.87;;;1.90;99.90;;;;;;5099983;28;20537;-55
2022/03/16 01:15:23;;;;;;;21.30;14.10;;;1.90;99.90;;;;;;5099841;28;20510;-55
2022/03/16 01:17:50;;;;;;;22.80;16.93;;;1.80;99.90;;;;;;5084979;28;20493;-58
2022/03/16 01:20:17;;;;;;;28.73;20.37;;;1.80;99.90;;;;;;5079150;28;20461;-56
2022/03/16 01:22:50;;;;;;;33.70;19.63;;;1.80;99.90;;;;;;5085301;28;20522;-58
2022/03/16 01:25:17;;;;;;;32.57;19.30;;;1.70;99.90;;;;;;5096971;28;20469;-59
2022/03/16 01:27:53;;;;;;;32.83;20.87;;;1.80;99.90;;;;;;5099665;28;20457;-54
2022/03/16 01:30:23;;;;;;;38.20;19.37;;;1.80;99.90;;;;;;5098653;28;20471;-59
2022/03/16 01:32:50;;;;;;;30.87;18.40;;;1.80;99.90;;;;;;5099211;28;20484;-58
2022/03/16 01:35:18;;;;;;;32.73;19.03;;;1.80;99.90;;;;;;5099441;28;20461;-58
2022/03/16 01:37:57;;;;;;;26.07;17.80;;;1.60;99.90;;;;;;5099006;28;20464;-59
2022/03/16 01:40:24;;;;;;;26.97;17.07;;;1.60;99.90;;;;;;5099191;28;20468;-59
2022/03/16 01:42:54;;;;;;;27.30;17.53;;;1.50;99.90;;;;;;5099696;28;20465;-59
2022/03/16 01:45:22;;;;;;;27.77;17.53;;;1.50;99.90;;;;;;5099194;28;20514;-58
2022/03/16 01:47:50;;;;;;;31.17;17.90;;;1.40;99.90;;;;;;5099514;28;20499;-58
2022/03/16 01:50:20;;;;;;;29.40;20.27;;;1.50;99.90;;;;;;5098513;28;20467;-59
2022/03/16 01:52:47;;;;;;;33.77;21.50;;;1.50;99.90;;;;;;5098752;28;20460;-58
2022/03/16 01:55:17;;;;;;;45.50;24.57;;;1.50;99.90;;;;;;5099047;28;20496;-59
2022/03/16 01:57:49;;;;;;;39.90;23.50;;;1.50;99.90;;;;;;5098974;28;20472;-58
2022/03/16 02:00:27;;;;;;;28.73;20.10;;;1.50;99.90;;;;;;5099007;28;20521;-59
2022/03/16 02:02:54;;;;;;;31.80;21.43;;;1.50;99.90;;;;;;5098290;28;20533;-58
2022/03/16 02:05:21;;;;;;;43.97;22.80;;;1.30;99.90;;;;;;5098421;28;20552;-55
2022/03/16 02:07:49;;;;;;;39.30;25.07;;;1.30;99.90;;;;;;5097856;28;20475;-59
2022/03/16 02:10:18;;;;;;;54.50;28.80;;;1.30;99.90;;;;;;5098566;28;20891;-59
2022/03/16 02:12:50;;;;;;;45.13;25.30;;;1.30;99.90;;;;;;5098620;28;20464;-55
2022/03/16 02:15:20;;;;;;;33.93;19.00;;;1.20;99.90;;;;;;5098206;28;20475;-57
2022/03/16 02:17:53;;;;;;;26.87;17.20;;;1.10;99.90;;;;;;5097969;28;20467;-58
2022/03/16 02:20:20;;;;;;;23.70;15.80;;;1.20;99.90;;;;;;5098256;28;20468;-59
2022/03/16 02:23:08;;;;;;;30.67;16.27;;;1.10;99.90;;;;;;5097805;28;20463;-56
2022/03/16 02:25:48;;;;;;;25.10;16.33;;;1.10;99.90;;;;;;5097727;28;20456;-58
2022/03/16 02:28:39;;;;;;;24.43;16.47;;;1.30;99.90;;;;;;5098125;28;20456;-57
2022/03/16 02:31:07;;;;;;;28.47;17.60;;;1.20;99.90;;;;;;5085550;28;20589;-58
2022/03/16 02:33:34;;;;;;;23.63;16.20;;;1.20;99.90;;;;;;5098259;28;20805;-58
2022/03/16 02:36:02;;;;;;;20.93;16.07;;;1.10;99.90;;;;;;5097777;28;20491;-59
2022/03/16 02:38:32;;;;;;;29.47;18.43;;;1.10;99.90;;;;;;5098198;28;20464;-55
2022/03/16 02:40:59;;;;;;;22.47;16.43;;;1.10;99.90;;;;;;5098312;28;20822;-59
2022/03/16 02:43:29;;;;;;;25.23;17.30;;;1.00;99.90;;;;;;5098232;28;20743;-54
2022/03/16 02:45:57;;;;;;;22.50;16.33;;;1.00;99.90;;;;;;5097965;28;20517;-58
2022/03/16 02:48:26;;;;;;;25.43;16.60;;;1.00;99.90;;;;;;5097830;28;20461;-57
2022/03/16 02:50:58;;;;;;;19.27;14.80;;;1.00;99.90;;;;;;5098125;28;20908;-57
2022/03/16 02:53:26;;;;;;;23.43;17.20;;;0.90;99.90;;;;;;5097814;28;20464;-58
2022/03/16 02:55:54;;;;;;;24.20;16.73;;;0.90;99.90;;;;;;5097458;28;20499;-57
2022/03/16 02:58:23;;;;;;;24.63;16.50;;;0.90;99.90;;;;;;5097706;28;20470;-56
2022/03/16 03:00:54;;;;;;;21.47;16.00;;;1.00;99.90;;;;;;5097742;28;20545;-58
2022/03/16 03:03:22;;;;;;;28.03;17.40;;;1.00;99.90;;;;;;5098337;28;20881;-56
2022/03/16 03:05:49;;;;;;;31.17;17.30;;;1.00;99.90;;;;;;5097270;28;20849;-57
2022/03/16 03:08:19;;;;;;;25.90;17.10;;;1.00;99.90;;;;;;5097493;28;20480;-57
2022/03/16 03:10:48;;;;;;;23.93;16.10;;;0.90;99.90;;;;;;5098083;28;20464;-55
2022/03/16 03:13:16;;;;;;;30.87;16.73;;;0.90;99.90;;;;;;5097256;28;20514;-58
2022/03/16 03:15:45;;;;;;;24.30;15.87;;;0.80;99.90;;;;;;5097707;28;20769;-58
2022/03/16 03:18:15;;;;;;;30.23;17.53;;;0.80;99.90;;;;;;5097586;28;20455;-59
2022/03/16 03:20:45;;;;;;;25.43;16.07;;;0.80;99.90;;;;;;5097584;28;20957;-58
2022/03/16 03:23:13;;;;;;;25.77;14.43;;;0.80;99.90;;;;;;5097706;28;20467;-58
2022/03/16 03:25:43;;;;;;;22.37;16.10;;;0.70;99.90;;;;;;5095966;28;20468;-57
2022/03/16 03:28:10;;;;;;;27.07;15.10;;;0.70;99.90;;;;;;5096790;28;20475;-57
2022/03/16 03:30:40;;;;;;;26.97;16.63;;;0.60;99.90;;;;;;5097345;28;20457;-56
2022/03/16 03:33:07;;;;;;;23.50;16.80;;;0.70;99.90;;;;;;5097436;28;20513;-57
2022/03/16 03:35:36;;;;;;;28.50;16.40;;;0.80;99.90;;;;;;5097338;28;20513;-56
2022/03/16 03:38:05;;;;;;;29.80;17.77;;;0.70;99.90;;;;;;5096873;28;20499;-54
2022/03/16 03:40:31;;;;;;;30.37;19.70;;;0.80;99.90;;;;;;5097235;28;20821;-56
2022/03/16 03:42:59;;;;;;;27.57;16.93;;;0.70;99.90;;;;;;5090149;28;20878;-58
2022/03/16 03:45:28;;;;;;;26.37;17.90;;;0.70;99.90;;;;;;5077123;28;20894;-56
2022/03/16 03:48:02;;;;;;;28.67;17.03;;;0.60;99.90;;;;;;5076780;28;20464;-55
2022/03/16 03:50:29;;;;;;;23.63;15.77;;;0.60;99.90;;;;;;5076909;28;20883;-54
2022/03/16 03:52:59;;;;;;;22.03;16.70;;;0.50;99.90;;;;;;5090336;28;20467;-53
2022/03/16 03:55:26;;;;;;;25.43;15.70;;;0.50;99.90;;;;;;5097284;28;20467;-56
2022/03/16 03:57:53;;;;;;;19.47;14.90;;;0.50;99.90;;;;;;5096790;28;20499;-55
2022/03/16 04:00:27;;;;;;;21.93;14.70;;;0.50;99.90;;;;;;5096988;28;20468;-58
2022/03/16 04:02:54;;;;;;;22.63;13.83;;;0.50;99.90;;;;;;5097357;28;20455;-53
2022/03/16 04:05:23;;;;;;;24.00;14.73;;;0.50;99.90;;;;;;5096889;28;20491;-56
2022/03/16 04:07:54;;;;;;;25.83;17.47;;;0.50;99.90;;;;;;5096729;28;20459;-56
2022/03/16 04:10:21;;;;;;;28.20;17.10;;;0.50;99.90;;;;;;5096828;28;20463;-57
2022/03/16 04:12:50;;;;;;;21.43;15.80;;;0.50;99.90;;;;;;5097370;28;20819;-59
2022/03/16 04:15:20;;;;;;;25.30;16.03;;;0.50;99.90;;;;;;5097204;28;20507;-59
2022/03/16 04:17:47;;;;;;;22.73;15.60;;;0.40;99.90;;;;;;5096854;28;20927;-59
2022/03/16 04:20:16;;;;;;;26.07;15.13;;;0.30;99.90;;;;;;5083337;28;20469;-58
2022/03/16 04:22:44;;;;;;;18.43;14.63;;;0.40;99.90;;;;;;5076546;28;20513;-58
2022/03/16 04:25:11;;;;;;;20.73;15.20;;;0.50;99.90;;;;;;5083074;28;20472;-59
2022/03/16 04:27:39;;;;;;;19.53;14.10;;;0.40;99.90;;;;;;5100845;28;20478;-59
2022/03/16 04:30:10;;;;;;;22.77;14.43;;;0.30;99.90;;;;;;5100647;28;20463;-58
2022/03/16 04:32:44;;;;;;;19.37;13.90;;;0.30;99.90;;;;;;5100481;28;20458;-58
2022/03/16 04:35:13;;;;;;;20.93;16.30;;;0.40;99.90;;;;;;5100714;28;20463;-58
2022/03/16 04:37:44;;;;;;;23.07;14.57;;;0.30;99.90;;;;;;5100710;28;21070;-59
2022/03/16 04:40:12;;;;;;;22.70;15.07;;;0.30;99.90;;;;;;5100279;28;20956;-58
2022/03/16 04:42:39;;;;;;;18.73;13.70;;;0.30;99.90;;;;;;5100745;28;20466;-59
2022/03/16 04:45:07;;;;;;;20.20;13.53;;;0.30;99.90;;;;;;5100326;28;20464;-54
2022/03/16 04:47:34;;;;;;;18.67;14.27;;;0.40;99.90;;;;;;5100618;28;20895;-56
2022/03/16 04:50:01;;;;;;;24.37;13.30;;;0.40;99.90;;;;;;5099726;28;20742;-56
2022/03/16 04:52:42;;;;;;;20.73;14.67;;;0.30;99.90;;;;;;5100062;28;20468;-53
2022/03/16 04:55:14;;;;;;;19.00;13.63;;;0.30;99.90;;;;;;5100632;28;20524;-52
2022/03/16 04:57:44;;;;;;;20.10;12.67;;;0.20;99.90;;;;;;5100567;28;20796;-59
2022/03/16 05:00:15;;;;;;;21.27;12.57;;;0.30;99.90;;;;;;5099839;28;20471;-56
2022/03/16 05:02:42;;;;;;;16.77;13.87;;;0.30;99.90;;;;;;5100053;28;20481;-55
2022/03/16 05:05:11;;;;;;;16.00;11.73;;;0.30;99.90;;;;;;5099795;28;20494;-56
2022/03/16 05:07:39;;;;;;;17.67;12.50;;;0.30;99.90;;;;;;5099353;28;20507;-56
2022/03/16 05:10:12;;;;;;;16.27;12.50;;;0.20;99.90;;;;;;5099535;28;20467;-57
2022/03/16 05:12:49;;;;;;;17.80;13.10;;;0.20;99.90;;;;;;5100263;28;20490;-58
2022/03/16 05:15:20;;;;;;;16.30;12.13;;;0.30;99.90;;;;;;5100243;28;20911;-55
2022/03/16 05:17:50;;;;;;;18.73;15.17;;;0.30;99.90;;;;;;5099159;28;20491;-58
2022/03/16 05:20:23;;;;;;;18.40;12.53;;;0.30;99.90;;;;;;5099317;28;20876;-54
2022/03/16 05:22:54;;;;;;;19.43;13.83;;;0.20;99.90;;;;;;5099631;28;20462;-55
2022/03/16 05:25:38;;;;;;;17.77;12.90;;;0.30;99.90;;;;;;5098289;28;20464;-59
2022/03/16 05:28:16;;;;;;;18.50;14.33;;;0.20;99.90;;;;;;5099164;28;20499;-58
2022/03/16 05:30:44;;;;;;;17.57;13.40;;;0.20;99.90;;;;;;5099616;28;20821;-57
2022/03/16 05:33:11;;;;;;;19.17;12.97;;;0.20;99.90;;;;;;5098620;28;20462;-54
2022/03/16 05:35:40;;;;;;;22.40;14.80;;;0.10;99.90;;;;;;5099483;28;20536;-56
2022/03/16 05:38:18;;;;;;;18.77;13.00;;;0.10;99.90;;;;;;5098421;28;20500;-56
2022/03/16 05:40:50;;;;;;;19.70;13.63;;;0.10;99.90;;;;;;5099142;28;20557;-58
2022/03/16 05:43:21;;;;;;;21.10;14.33;;;0.20;99.90;;;;;;5099453;28;20467;-55
2022/03/16 05:45:50;;;;;;;17.30;13.37;;;0.10;99.90;;;;;;5097594;28;20547;-56
2022/03/16 05:48:17;;;;;;;16.63;14.10;;;0.20;99.90;;;;;;5097925;28;20559;-57
2022/03/16 05:50:46;;;;;;;17.43;14.23;;;0.30;99.90;;;;;;5098705;28;20772;-53
2022/03/16 05:53:16;;;;;;;20.30;14.90;;;0.30;99.90;;;;;;5098608;28;20893;-58
2022/03/16 05:55:45;;;;;;;23.73;14.10;;;0.30;99.90;;;;;;5099072;28;20465;-58
2022/03/16 05:58:15;;;;;;;16.50;12.93;;;0.20;99.90;;;;;;5098731;28;20491;-59
2022/03/16 06:00:46;;;;;;;17.93;13.07;;;0.20;99.90;;;;;;5098751;28;20469;-58
2022/03/16 06:03:13;;;;;;;23.70;15.60;;;0.20;99.90;;;;;;5099071;28;20466;-58
2022/03/16 06:05:43;;;;;;;18.33;14.70;;;0.30;99.90;;;;;;5098082;28;20510;-59
2022/03/16 06:08:12;;;;;;;27.73;15.73;;;0.30;99.90;;;;;;5091301;28;20924;-59
2022/03/16 06:10:42;;;;;;;21.93;16.13;;;0.30;99.90;;;;;;5097508;28;20519;-59
2022/03/16 06:13:10;;;;;;;21.17;15.20;;;0.40;99.90;;;;;;5098364;28;20459;-58
2022/03/16 06:15:43;;;;;;;22.63;16.63;;;0.60;99.90;;;;;;5096556;28;20479;-59
2022/03/16 06:18:34;;;;;;;22.63;16.20;;;0.70;99.90;;;;;;5090195;28;20483;-59
2022/03/16 06:21:06;;;;;;;25.57;15.47;;;0.80;99.90;;;;;;5090866;28;20473;-59
2022/03/16 06:23:39;;;;;;;22.53;14.50;;;0.90;99.90;;;;;;5098403;28;20573;-58
2022/03/16 06:26:06;;;;;;;23.03;15.33;;;1.00;99.90;;;;;;5089913;28;20464;-59
2022/03/16 06:28:39;;;;;;;19.03;14.47;;;1.20;99.90;;;;;;5085106;28;20556;-60
2022/03/16 06:31:07;;;;;;;22.90;15.67;;;1.50;99.90;;;;;;5086282;28;20468;-60
2022/03/16 06:33:36;;;;;;;23.70;15.23;;;1.60;99.90;;;;;;5085135;28;20456;-59
2022/03/16 06:36:05;;;;;;;22.50;15.73;;;1.70;99.90;;;;;;5077346;28;20468;-60
2022/03/16 06:38:32;;;;;;;19.50;14.30;;;1.90;99.90;;;;;;5077137;28;20496;-57
2022/03/16 06:40:59;;;;;;;21.73;15.50;;;2.20;99.90;;;;;;5086091;28;20460;-61
2022/03/16 06:43:30;;;;;;;19.50;13.97;;;2.30;99.90;;;;;;5097276;28;20893;-62
2022/03/16 06:46:00;;;;;;;19.90;15.33;;;2.40;99.90;;;;;;5096841;28;20443;-61
2022/03/16 06:48:27;;;;;;;25.60;16.30;;;2.60;99.90;;;;;;5096761;28;20486;-63
2022/03/16 06:50:55;;;;;;;23.37;15.90;;;2.80;99.90;;;;;;5096751;28;20471;-62
2022/03/16 06:53:22;;;;;;;26.17;16.37;;;3.10;99.90;;;;;;5080353;28;20462;-61
2022/03/16 06:55:52;;;;;;;22.20;15.17;;;3.30;99.90;;;;;;5077716;28;20501;-59
2022/03/16 06:58:19;;;;;;;22.07;15.73;;;3.50;99.90;;;;;;5081314;28;20488;-60
2022/03/16 07:00:49;;;;;;;28.93;16.37;;;3.90;99.90;;;;;;5095463;28;20519;-58
2022/03/16 07:03:16;;;;;;;25.93;16.97;;;4.10;99.90;;;;;;5093043;28;20457;-58
2022/03/16 07:05:46;;;;;;;23.33;15.63;;;4.50;99.90;;;;;;5095719;28;20516;-58
2022/03/16 07:08:23;;;;;;;23.23;15.07;;;4.80;99.90;;;;;;5096646;28;20486;-60
2022/03/16 07:10:59;;;;;;;20.47;14.33;;;5.20;99.90;;;;;;5094785;28;20468;-59
2022/03/16 07:13:34;;;;;;;20.80;16.10;;;5.60;99.90;;;;;;5096832;28;20806;-60
2022/03/16 07:16:03;;;;;;;21.33;15.53;;;5.90;99.90;;;;;;5095182;28;20452;-59
2022/03/16 07:18:30;;;;;;;21.23;15.50;;;6.20;99.90;;;;;;5094993;28;20493;-61
2022/03/16 07:20:57;;;;;;;19.93;16.30;;;6.40;99.90;;;;;;5097382;28;20526;-63
2022/03/16 07:23:26;;;;;;;20.60;14.70;;;6.60;99.90;;;;;;5096519;28;20467;-63
2022/03/16 07:25:56;;;;;;;20.73;15.37;;;6.70;1.00;;;;;;5097072;28;20513;-63
2022/03/16 07:28:25;;;;;;;20.50;15.77;;;6.70;99.90;;;;;;5095877;28;20460;-63
2022/03/16 07:30:52;;;;;;;20.80;14.70;;;6.80;99.90;;;;;;5097265;28;20438;-63
2022/03/16 07:33:19;;;;;;;22.40;17.00;;;6.90;99.90;;;;;;5097247;28;20463;-63
2022/03/16 07:35:48;;;;;;;18.30;14.40;;;7.00;99.90;;;;;;5096760;28;20514;-63
2022/03/16 07:38:15;;;;;;;21.17;16.60;;;7.00;44.60;;;;;;5096627;28;20528;-63
2022/03/16 07:40:46;;;;;;;19.30;14.37;;;7.30;45.50;;;;;;5097270;28;20461;-63
2022/03/16 07:43:16;;;;;;;21.07;16.77;;;7.50;1.00;;;;;;5097257;28;20478;-63
2022/03/16 07:45:50;;;;;;;18.73;15.60;;;7.70;1.00;;;;;;5097366;28;20460;-63
2022/03/16 07:48:22;;;;;;;18.53;12.57;;;7.90;1.00;;;;;;5087106;28;20465;-64
2022/03/16 07:50:51;;;;;;;21.33;15.60;;;7.90;1.00;;;;;;5094721;28;20473;-64
2022/03/16 07:53:18;;;;;;;16.37;14.60;;;8.10;1.00;;;;;;5093961;28;20472;-64
2022/03/16 07:55:47;;;;;;;16.50;14.00;;;8.30;1.00;;;;;;5092079;28;20468;-64
2022/03/16 07:58:18;;;;;;;20.67;16.13;;;8.50;1.00;;;;;;5096084;28;20492;-63
2022/03/16 08:00:45;;;;;;;20.33;16.77;;;8.60;1.00;;;;;;5099323;28;20543;-64
2022/03/16 08:03:13;;;;;;;15.13;13.53;;;8.80;1.00;;;;;;5101166;28;20464;-63
2022/03/16 08:05:40;;;;;;;17.87;14.60;;;8.90;1.00;;;;;;5100582;28;20488;-63
2022/03/16 08:08:10;;;;;;;17.20;13.93;;;9.00;1.00;;;;;;5101252;28;20946;-63
2022/03/16 08:10:37;;;;;;;19.67;15.20;;;9.10;1.00;;;;;;5100802;28;20460;-63
2022/03/16 08:13:05;;;;;;;17.97;15.00;;;9.30;1.00;;;;;;5100880;28;20464;-61
2022/03/16 08:15:33;;;;;;;18.23;14.17;;;9.50;1.00;;;;;;5100282;28;20460;-62
2022/03/16 08:18:00;;;;;;;16.13;13.40;;;9.70;1.00;;;;;;5100195;28;20789;-62
2022/03/16 08:20:34;;;;;;;19.20;14.43;;;9.60;1.00;;;;;;5100777;28;20901;-62
2022/03/16 08:23:04;;;;;;;16.70;14.43;;;9.70;1.00;;;;;;5100937;28;20540;-62
2022/03/16 08:25:31;;;;;;;15.10;12.50;;;9.70;1.00;;;;;;5090416;28;20791;-60
2022/03/16 08:28:00;;;;;;;18.77;14.80;;;9.90;1.00;;;;;;5097902;28;20467;-61
2022/03/16 08:30:31;;;;;;;16.77;14.10;;;10.00;1.00;;;;;;5080234;28;20465;-61
2022/03/16 08:33:01;;;;;;;15.77;14.07;;;10.20;1.00;;;;;;5086218;28;20460;-62
2022/03/16 08:35:36;;;;;;;16.93;13.73;;;10.30;1.00;;;;;;5100603;28;20821;-61
2022/03/16 08:38:03;;;;;;;17.00;13.77;;;10.40;1.00;;;;;;5100497;28;20498;-61
2022/03/16 08:40:32;;;;;;;16.63;13.77;;;10.70;1.00;;;;;;5100225;28;20467;-61
2022/03/16 08:42:59;;;;;;;14.40;12.70;;;10.80;1.00;;;;;;5081755;28;20461;-61
2022/03/16 08:45:29;;;;;;;16.27;13.70;;;11.00;1.00;;;;;;5079938;28;20465;-60
2022/03/16 08:47:59;;;;;;;15.83;14.13;;;11.00;1.00;;;;;;5079686;28;20511;-61
2022/03/16 08:50:30;;;;;;;14.73;13.17;;;10.90;1.00;;;;;;5079572;28;20527;-61
2022/03/16 08:52:59;;;;;;;16.43;14.47;;;10.80;1.00;;;;;;5079790;28;20510;-60
2022/03/16 08:55:31;;;;;;;19.20;14.43;;;10.70;99.90;;;;;;5079881;28;20465;-59
2022/03/16 08:57:58;;;;;;;16.17;12.97;;;10.90;1.00;;;;;;5080710;28;20543;-60
2022/03/16 09:00:32;;;;;;;14.20;12.33;;;11.10;99.90;;;;;;5099771;28;20468;-59
2022/03/16 09:03:02;;;;;;;13.73;12.20;;;11.30;99.90;;;;;;5100143;28;20517;-58
2022/03/16 09:05:39;;;;;;;14.50;12.73;;;11.30;99.90;;;;;;5099377;28;20488;-57
2022/03/16 09:08:09;;;;;;;13.00;11.57;;;11.50;99.90;;;;;;5099938;28;20460;-59
2022/03/16 09:10:39;;;;;;;14.40;12.90;;;11.30;99.90;;;;;;5099414;28;20769;-60
2022/03/16 09:13:06;;;;;;;14.13;11.63;;;11.40;99.90;;;;;;5099427;28;20932;-60
2022/03/16 09:15:38;;;;;;;13.43;12.03;;;11.30;99.90;;;;;;5099886;28;20903;-60
2022/03/16 09:18:09;;;;;;;13.80;11.37;;;11.30;99.90;;;;;;5099621;28;20568;-61
2022/03/16 09:20:40;;;;;;;12.73;11.43;;;11.20;99.90;;;;;;5099367;28;20475;-60
2022/03/16 09:23:10;;;;;;;14.23;12.60;;;11.20;99.90;;;;;;5098886;28;20881;-61
2022/03/16 09:25:37;;;;;;;12.27;11.00;;;11.30;99.90;;;;;;5097811;28;20464;-61
2022/03/16 09:28:08;;;;;;;14.80;11.80;;;11.10;99.90;;;;;;5085283;28;20544;-58
2022/03/16 09:30:35;;;;;;;12.40;11.03;;;11.00;99.90;;;;;;5079231;28;20472;-60
2022/03/16 09:33:04;;;;;;;13.77;12.30;;;11.00;99.90;;;;;;5087440;28;20498;-60
2022/03/16 09:35:33;;;;;;;13.10;11.70;;;11.20;99.90;;;;;;5099059;28;20514;-59
2022/03/16 09:38:01;;;;;;;14.30;12.90;;;11.10;99.90;;;;;;5097714;28;20495;-59
2022/03/16 09:40:28;;;;;;;12.47;11.17;;;11.30;99.90;;;;;;5099099;28;20545;-61
2022/03/16 09:42:57;;;;;;;13.67;12.23;;;11.60;99.90;;;;;;5098783;28;20464;-61
2022/03/16 09:45:30;;;;;;;13.47;12.10;;;11.70;99.90;;;;;;5098179;28;20466;-60
2022/03/16 09:47:58;;;;;;;13.80;11.90;;;11.90;99.90;;;;;;5099120;28;20460;-60
2022/03/16 09:50:27;;;;;;;13.70;12.30;;;12.20;99.90;;;;;;5097757;28;20471;-61
2022/03/16 09:52:55;;;;;;;13.40;12.00;;;12.30;99.90;;;;;;5098003;28;20463;-61
2022/03/16 09:55:23;;;;;;;13.57;11.63;;;12.00;99.90;;;;;;5098659;28;20905;-60
2022/03/16 09:57:50;;;;;;;13.27;11.37;;;12.20;99.90;;;;;;5098412;28;20460;-60
2022/03/16 10:00:20;;;;;;;11.80;10.60;;;12.30;99.90;;;;;;5098809;28;20460;-61
2022/03/16 10:02:48;;;;;;;12.43;11.13;;;12.30;99.90;;;;;;5098887;28;20464;-60
2022/03/16 10:05:19;;;;;;;12.83;11.53;;;12.30;99.90;;;;;;5098299;28;20484;-59
2022/03/16 10:07:48;;;;;;;11.67;10.47;;;12.70;99.90;;;;;;5098605;28;20492;-57
2022/03/16 10:13:15;;;;;;;12.47;11.07;;;12.70;99.90;;;;;;5096897;28;20444;-60
2022/03/16 10:15:44;;;;;;;11.80;10.60;;;12.60;99.90;;;;;;5098758;28;20513;-59
2022/03/16 10:18:11;;;;;;;12.00;10.80;;;12.90;99.90;;;;;;5097988;28;20488;-60
2022/03/16 10:20:39;;;;;;;10.73;9.73;;;12.90;99.90;;;;;;5098437;28;20467;-60
2022/03/16 10:23:14;;;;;;;10.73;9.63;;;12.80;99.90;;;;;;5098449;28;20559;-61
2022/03/16 10:25:45;;;;;;;11.63;10.43;;;12.80;99.90;;;;;;5098985;28;20459;-57
2022/03/16 10:28:14;;;;;;;11.13;10.03;;;13.10;99.90;;;;;;5098513;28;20460;-59
2022/03/16 10:30:57;;;;;;;11.27;9.83;;;13.50;99.90;;;;;;5096561;28;20511;-59
2022/03/16 10:33:32;;;;;;;11.10;10.00;;;13.70;99.90;;;;;;5093969;28;20464;-56
2022/03/16 10:36:05;;;;;;;11.47;9.17;;;13.70;99.90;;;;;;5091992;28;20462;-58
2022/03/16 10:38:46;;;;;;;14.97;8.70;;;13.90;99.90;;;;;;5076657;28;20495;-57
2022/03/16 10:46:34;;;;;;;10.73;9.63;;;13.70;99.90;;;;;;5077939;28;20526;-58
2022/03/16 10:47:03;;;;;;;10.80;9.80;;;13.90;99.90;;;;;;5077488;28;20437;-59
2022/03/16 10:49:35;;;;;;;9.97;8.77;;;14.00;99.90;;;;;;5077633;28;20769;-59
2022/03/16 10:52:14;;;;;;;9.73;8.83;;;14.10;99.90;;;;;;5077416;28;20552;-60
2022/03/16 10:54:45;;;;;;;11.47;10.27;;;14.10;99.90;;;;;;5077125;28;20920;-59
2022/03/16 10:57:17;;;;;;;10.90;9.70;;;14.20;99.90;;;;;;5077067;28;20814;-60
2022/03/16 10:59:48;;;;;;;10.67;9.57;;;14.10;99.90;;;;;;5077187;28;20956;-58
2022/03/16 11:02:19;;;;;;;10.63;9.63;;;14.10;99.90;;;;;;5077288;28;20803;-59
2022/03/16 11:04:50;;;;;;;10.73;9.13;;;14.10;99.90;;;;;;5076968;28;20956;-58
2022/03/16 11:07:19;;;;;;;9.80;8.90;;;14.20;99.90;;;;;;5075678;28;20465;-59
2022/03/16 11:09:49;;;;;;;9.90;8.90;;;14.20;99.90;;;;;;5083694;28;20826;-58
2022/03/16 11:15:04;;;;;;;10.17;9.17;;;14.30;99.90;;;;;;5097451;28;20455;-59
2022/03/16 11:17:41;;;;;;;10.50;9.43;;;14.40;99.90;;;;;;5097328;28;20469;-58
2022/03/16 11:20:19;;;;;;;8.53;7.73;;;14.50;99.90;;;;;;5097064;28;20491;-58
2022/03/16 11:25:52;;;;;;;8.90;8.00;;;15.00;99.90;;;;;;5097457;28;20452;-57
2022/03/16 11:28:35;;;;;;;8.90;8.03;;;15.20;99.90;;;;;;5097186;28;20510;-59
2022/03/16 11:31:02;;;;;;;10.30;9.23;;;15.30;99.90;;;;;;5097690;28;20464;-60
2022/03/16 11:33:29;;;;;;;8.90;8.00;;;15.40;99.90;;;;;;5097859;28;20514;-60
2022/03/16 11:36:00;;;;;;;10.13;9.03;;;15.30;99.90;;;;;;5096523;28;20460;-60
2022/03/16 11:38:35;;;;;;;9.17;8.27;;;15.30;99.90;;;;;;5097376;28;20889;-53
2022/03/16 11:41:08;;;;;;;8.70;7.90;;;15.50;99.90;;;;;;5096222;28;20467;-59
2022/03/16 11:43:39;;;;;;;8.77;7.87;;;15.50;99.90;;;;;;5097706;28;20873;-59
2022/03/16 11:46:36;;;;;;;9.30;8.40;;;15.60;99.90;;;;;;5097451;28;20460;-59
2022/03/16 11:49:07;;;;;;;8.90;8.00;;;15.80;99.90;;;;;;5097507;28;20461;-60
2022/03/16 11:51:35;;;;;;;9.27;8.37;;;15.90;99.90;;;;;;5096604;28;20464;-59
2022/03/16 11:54:09;;;;;;;8.80;7.83;;;16.20;99.90;;;;;;5096073;28;20460;-59
2022/03/16 11:56:58;;;;;;;8.27;7.50;;;16.50;99.90;;;;;;5090282;28;20457;-59
2022/03/16 11:59:40;;;;;;;8.00;7.30;;;17.00;99.90;;;;;;5073798;28;20542;-59
2022/03/16 12:02:12;;;;;;;8.37;7.67;;;17.20;99.90;;;;;;5092765;28;20461;-60
2022/03/16 12:04:46;;;;;;;8.77;7.90;;;16.60;99.90;;;;;;5076506;28;20532;-60
2022/03/16 12:07:16;;;;;;;9.10;8.30;;;16.30;99.90;;;;;;5087931;28;20456;-60
2022/03/16 12:09:45;;;;;;;9.33;8.50;;;16.00;99.90;;;;;;5097234;28;20510;-59
2022/03/16 12:12:54;;;;;;;8.97;8.07;;;16.00;99.90;;;;;;5096711;28;20499;-59
2022/03/16 12:15:36;;;;;;;9.33;8.53;;;16.60;99.90;;;;;;5096612;28;20452;-60
2022/03/16 12:18:27;;;;;;;9.10;8.30;;;17.00;99.90;;;;;;5096732;28;20491;-60
2022/03/16 12:21:17;;;;;;;9.50;8.60;;;16.90;99.90;;;;;;5076938;28;20765;-60
2022/03/16 12:25:08;;;;;;;9.23;8.43;;;16.30;99.90;;;;;;5076729;28;20510;-56
2022/03/16 12:29:39;;;;;;;8.33;7.60;;;16.60;99.90;;;;;;5087257;28;20446;-60
2022/03/16 12:32:09;;;;;;;10.50;9.50;;;16.90;99.90;;;;;;5090567;28;20456;-59
2022/03/16 12:34:46;;;;;;;10.07;9.17;;;17.30;99.90;;;;;;5086569;28;20773;-60
2022/03/16 12:37:24;;;;;;;9.70;8.70;;;17.00;99.90;;;;;;5077090;28;20456;-60
2022/03/16 12:39:51;;;;;;;10.63;9.57;;;16.90;99.90;;;;;;5076542;28;20786;-59
2022/03/16 12:42:31;;;;;;;10.17;9.27;;;16.90;99.90;;;;;;5084266;28;20454;-58
2022/03/16 12:45:09;;;;;;;9.47;8.67;;;16.80;99.90;;;;;;5082445;28;20471;-59
2022/03/16 12:47:47;;;;;;;10.43;9.53;;;16.90;99.90;;;;;;5092395;28;20931;-59
2022/03/16 12:50:17;;;;;;;11.67;10.47;;;17.00;99.90;;;;;;5084938;28;20452;-60
2022/03/16 12:52:52;;;;;;;10.37;9.47;;;17.10;99.90;;;;;;5091138;28;20471;-56
2022/03/16 12:55:22;;;;;;;11.37;9.83;;;17.20;99.90;;;;;;5097891;28;20472;-59
2022/03/16 12:58:01;;;;;;;10.30;9.23;;;17.50;99.90;;;;;;5098992;28;20460;-59
2022/03/16 13:00:38;;;;;;;10.00;9.10;;;17.60;99.90;;;;;;5100079;28;20499;-58
2022/03/16 13:03:27;;;;;;;9.97;9.00;;;17.70;99.90;;;;;;5099624;28;20885;-59
2022/03/16 13:05:59;;;;;;;10.13;9.23;;;17.30;99.90;;;;;;5099753;28;20483;-60
2022/03/16 13:08:26;;;;;;;10.33;9.50;;;17.30;99.90;;;;;;5094810;28;20480;-58
2022/03/16 13:11:18;;;;;;;10.37;9.50;;;17.60;99.90;;;;;;5083962;28;20461;-58